Estación Meteorológica Peña el Pijo (Robertgarden) [ 07/19/24 12:47:21 CEST ]

Fecha Hora Presion(HPa) Temp (°C) Humedad % Rocio (°C) Viento ( m/s) Direccion Lluvia 1Hora(mm) Lluvia 24H(mm) LLuvia Total(mm)
2011-Apr-23 01:01:14 1001.500 5.7 90 4.2         78.21
2011-Apr-23 02:01:15 1001.300 4.7 90 3.2         78.21
2011-Apr-23 03:01:13 1001.100 3.9 91 2.5         78.21
2011-Apr-23 04:01:13 1000.700 3.6 91 2.2         78.21
2011-Apr-23 05:01:17 1000.400 4.2 92 3.0         78.21
2011-Apr-23 06:01:15 1000.100 4.8 93 3.8         78.21
2011-Apr-23 07:01:14 1000.100 5.2 93 4.2         78.21
2011-Apr-23 08:01:17 1000.200 5.5 93 4.5         78.21
2011-Apr-23 09:01:46 1000.500 6.4 94 5.5         78.21
2011-Apr-23 10:01:42 1001.000 7.3 93 6.2         78.21
2011-Apr-23 11:01:50 1001.300 9.2 90 7.7         78.21
2011-Apr-23 12:01:44 1001.100 12.5 80 9.2         78.21
2011-Apr-23 13:01:48 1001.300 11.4 75 7.1         78.21
2011-Apr-23 14:01:16 1001.200 10.1 84 7.5         78.21
2011-Apr-23 15:01:13 1001.100 12.9 78 9.1         78.21
2011-Apr-23 16:01:15 1000.800 9.9 84 7.3         78.21
2011-Apr-23 17:01:13 1000.700 12.8 75 8.5         78.21
2011-Apr-23 18:01:16 1001.200 10.6 82 7.6         78.21
2011-Apr-23 19:01:18 1001.500 9.3 84 6.7         78.21
2011-Apr-23 20:01:16 1002.100 8.9 88 7.0         78.21
2011-Apr-23 21:01:14 1002.700 7.9 90 6.4         78.21
2011-Apr-23 22:01:14 1003.500 7.3 91 6.0         78.21
2011-Apr-23 23:01:17 1003.700 7.3 91 6.0         78.21

Temperatura Máxima:12°    Temperatura Mínima:
Presión Máxima:1003.700 Hpa    Presión Mínima:1000.100 Hpa


Volver